Time;durP1;ratioP1;P1;durP2;ratioP2;P2;SDS_P1;SDS_P2;PMS_P1;PMS_P2;Temp;Humidity;BMP_temperature;BMP_pressure;BME280_temperature;BME280_humidity;BME280_pressure;Samples;Min_cycle;Max_cycle;Signal;HPM_P1;HPM_P2
2021/07/17 00:01:45;;;;;;;1999.90;999.90;;;;;;;20.54;100.00;95121.88;4915485;29;20264;-76
2021/07/17 00:04:12;;;;;;;1999.90;999.90;;;;;;;20.68;100.00;95123.84;4916439;29;20308;-75
2021/07/17 00:06:41;;;;;;;1999.90;999.90;;;;;;;20.67;100.00;95122.34;4916313;29;20644;-75
2021/07/17 00:09:08;;;;;;;1999.90;999.90;;;;;;;20.60;100.00;95123.81;4916578;29;20202;-74
2021/07/17 00:11:35;;;;;;;1999.90;999.90;;;;;;;20.50;99.60;95134.28;4916202;29;20202;-75
2021/07/17 00:14:02;;;;;;;1999.90;999.90;;;;;;;20.29;100.00;95134.06;4916040;29;20249;-76
2021/07/17 00:16:29;;;;;;;1999.90;999.90;;;;;;;20.29;99.28;95134.84;4916688;29;20206;-75
2021/07/17 00:18:57;;;;;;;1999.90;999.90;;;;;;;20.32;98.02;95134.16;4916492;29;20260;-76
2021/07/17 00:21:25;;;;;;;1999.90;999.90;;;;;;;20.43;97.72;95140.25;4916803;29;20210;-74
2021/07/17 00:23:53;;;;;;;1999.90;999.90;;;;;;;20.21;99.02;95138.53;4916067;29;20706;-74
2021/07/17 00:26:21;;;;;;;1999.90;999.90;;;;;;;19.98;100.00;95138.69;4916550;29;20602;-75
2021/07/17 00:28:48;;;;;;;1999.90;999.90;;;;;;;19.93;100.00;95135.59;4916220;29;20554;-75
2021/07/17 00:31:15;;;;;;;1999.90;999.90;;;;;;;20.00;100.00;95139.09;4916287;29;20206;-76
2021/07/17 00:33:42;;;;;;;1999.90;999.90;;;;;;;19.98;100.00;95132.63;4916175;29;20213;-76
2021/07/17 00:36:09;;;;;;;1999.90;999.90;;;;;;;20.04;100.00;95129.31;4916121;29;20208;-74
2021/07/17 00:38:36;;;;;;;1999.90;999.90;;;;;;;20.05;100.00;95135.34;4916010;29;20280;-75
2021/07/17 00:41:05;;;;;;;1999.90;999.90;;;;;;;20.09;100.00;95141.44;4916089;29;20289;-75
2021/07/17 00:43:33;;;;;;;1999.90;999.90;;;;;;;20.06;100.00;95150.06;4915650;29;20265;-75
2021/07/17 00:46:00;;;;;;;1999.90;999.90;;;;;;;20.05;100.00;95146.66;4915763;29;20205;-75
2021/07/17 00:48:28;;;;;;;1999.90;999.90;;;;;;;20.09;100.00;95139.53;4915864;29;20202;-75
2021/07/17 00:50:55;;;;;;;1999.90;999.90;;;;;;;20.03;100.00;95132.31;4915722;29;20206;-75
2021/07/17 00:53:22;;;;;;;1999.90;999.90;;;;;;;20.09;100.00;95138.78;4915488;29;20205;-74
2021/07/17 00:55:52;;;;;;;1999.90;999.90;;;;;;;20.16;100.00;95136.22;4915860;29;20205;-75
2021/07/17 00:58:23;;;;;;;1999.90;999.90;;;;;;;20.23;100.00;95131.00;4915540;29;20256;-75
2021/07/17 01:00:52;;;;;;;1999.90;999.90;;;;;;;20.25;100.00;95134.03;4915863;29;20210;-75
2021/07/17 01:03:20;;;;;;;1999.90;999.90;;;;;;;20.21;100.00;95122.72;4915052;29;20246;-76
2021/07/17 01:05:48;;;;;;;1999.90;999.90;;;;;;;20.23;100.00;95123.09;4915281;29;20261;-77
2021/07/17 01:08:15;;;;;;;1999.90;999.90;;;;;;;20.33;100.00;95122.44;4915575;29;20206;-75
2021/07/17 01:10:43;;;;;;;1999.90;999.90;;;;;;;20.32;100.00;95122.84;4915223;29;20273;-77
2021/07/17 01:13:10;;;;;;;1999.90;999.90;;;;;;;20.34;100.00;95121.34;4914169;29;20231;-77
2021/07/17 01:15:39;;;;;;;1999.90;999.90;;;;;;;20.31;100.00;95119.44;4915478;29;20202;-77
2021/07/17 01:18:06;;;;;;;1999.90;999.90;;;;;;;20.20;100.00;95114.03;4915014;29;20198;-76
2021/07/17 01:20:34;;;;;;;1999.90;999.90;;;;;;;20.14;100.00;95117.34;4915054;29;20261;-77
2021/07/17 01:23:03;;;;;;;1999.90;999.90;;;;;;;20.27;100.00;95109.94;4915392;29;20212;-75
2021/07/17 01:25:34;;;;;;;1999.90;999.90;;;;;;;20.23;100.00;95107.25;4915015;29;20285;-75
2021/07/17 01:28:02;;;;;;;1999.90;999.90;;;;;;;20.35;100.00;95111.53;4915033;29;20194;-74
2021/07/17 01:30:31;;;;;;;1999.90;999.90;;;;;;;20.39;100.00;95105.16;4914723;29;20290;-75
2021/07/17 01:32:58;;;;;;;1999.90;999.90;;;;;;;20.45;100.00;95106.34;4914781;29;20206;-75
2021/07/17 01:35:26;;;;;;;1999.90;999.90;;;;;;;20.48;100.00;95100.31;4914730;29;20212;-70
2021/07/17 01:37:53;;;;;;;1999.90;999.90;;;;;;;20.50;100.00;95094.69;4914920;29;20206;-74
2021/07/17 01:40:22;;;;;;;1999.90;999.90;;;;;;;20.56;100.00;95096.63;4914766;29;20194;-73
2021/07/17 01:42:50;;;;;;;1999.90;999.90;;;;;;;20.55;100.00;95092.47;4914984;29;20883;-74
2021/07/17 01:45:27;;;;;;;1999.90;999.90;;;;;;;20.54;100.00;95088.31;4914343;29;20283;-75
2021/07/17 01:47:55;;;;;;;1999.90;999.90;;;;;;;20.45;100.00;95085.22;4914701;29;20983;-75
2021/07/17 01:50:25;;;;;;;1999.90;999.90;;;;;;;20.43;100.00;95076.91;4914916;29;20205;-75
2021/07/17 01:52:52;;;;;;;1999.90;999.90;;;;;;;20.44;100.00;95075.78;4914481;29;20198;-74
2021/07/17 01:55:21;;;;;;;1999.90;999.90;;;;;;;20.46;100.00;95076.19;4914534;29;20261;-74
2021/07/17 01:57:51;;;;;;;1999.90;999.90;;;;;;;20.43;100.00;95076.91;4914458;29;20214;-73
2021/07/17 02:00:20;;;;;;;1999.90;999.90;;;;;;;20.30;100.00;95078.28;4914706;29;20209;-73
2021/07/17 02:02:48;;;;;;;1999.90;999.90;;;;;;;20.18;100.00;95089.09;4909885;29;20293;-74
2021/07/17 02:05:18;;;;;;;1999.90;999.90;;;;;;;20.22;100.00;95076.72;4912003;29;20356;-75
2021/07/17 02:07:46;;;;;;;1999.90;999.90;;;;;;;20.08;100.00;95076.59;4913255;29;20202;-71
2021/07/17 02:10:15;;;;;;;1999.90;999.90;;;;;;;20.02;100.00;95078.81;4911467;29;20209;-74
2021/07/17 02:12:59;;;;;;;1999.90;999.90;;;;;;;19.99;100.00;95073.50;4913735;29;20230;-75
2021/07/17 02:15:26;;;;;;;1999.90;999.90;;;;;;;19.95;100.00;95077.97;4913745;29;20198;-75
2021/07/17 02:17:54;;;;;;;1999.90;999.90;;;;;;;19.90;100.00;95073.03;4913845;29;20224;-75
2021/07/17 02:20:21;;;;;;;1999.90;999.90;;;;;;;19.84;100.00;95077.13;4913899;29;20198;-77
2021/07/17 02:22:48;;;;;;;1999.90;999.90;;;;;;;19.86;100.00;95067.72;4913649;29;20643;-77
2021/07/17 02:25:15;;;;;;;1999.90;999.90;;;;;;;19.93;100.00;95069.66;4913834;29;20887;-73
2021/07/17 02:27:42;;;;;;;1999.90;999.90;;;;;;;19.84;100.00;95069.97;4914030;29;20234;-75
2021/07/17 02:30:12;;;;;;;1999.90;999.90;;;;;;;19.84;100.00;95069.19;4913879;29;20256;-75
2021/07/17 02:32:40;;;;;;;1999.90;999.90;;;;;;;19.75;100.00;95069.50;4913934;29;20269;-75
2021/07/17 02:35:07;;;;;;;1999.90;999.90;;;;;;;19.75;100.00;95070.25;4913550;29;20201;-75
2021/07/17 02:37:34;;;;;;;1999.90;999.90;;;;;;;19.80;100.00;95077.09;4913521;29;20212;-74
2021/07/17 02:40:01;;;;;;;1999.90;999.90;;;;;;;19.66;100.00;95076.94;4913227;29;20257;-75
2021/07/17 02:42:29;;;;;;;1999.90;999.90;;;;;;;19.66;100.00;95076.94;4913513;29;20265;-74
2021/07/17 02:44:56;;;;;;;1999.90;999.90;;;;;;;19.61;100.00;95074.63;4913598;29;20238;-75
2021/07/17 02:47:24;;;;;;;1999.90;999.90;;;;;;;19.61;100.00;95082.53;4913323;29;20265;-75
2021/07/17 02:49:51;;;;;;;1999.90;999.90;;;;;;;19.60;100.00;95073.88;4913316;29;20213;-74
2021/07/17 02:52:19;;;;;;;1999.90;999.90;;;;;;;19.58;100.00;95076.09;4913730;29;20234;-76
2021/07/17 02:54:46;;;;;;;1999.90;999.90;;;;;;;19.55;100.00;95071.56;4913520;29;20390;-74
2021/07/17 02:57:13;;;;;;;1999.90;999.90;;;;;;;19.62;100.00;95073.50;4906379;29;20269;-75
2021/07/17 02:59:40;;;;;;;1999.90;999.90;;;;;;;19.61;100.00;95075.38;4894714;29;20297;-75
2021/07/17 03:02:07;;;;;;;1999.90;999.90;;;;;;;19.62;100.00;95073.50;4898427;29;20238;-69
2021/07/17 03:04:35;;;;;;;1999.90;999.90;;;;;;;19.61;100.00;95080.66;4913106;29;20210;-78
2021/07/17 03:07:02;;;;;;;1999.90;999.90;;;;;;;19.56;100.00;95077.59;4912937;29;20201;-75
2021/07/17 03:09:30;;;;;;;1999.90;999.90;;;;;;;19.54;100.00;95071.91;4913249;29;20206;-77
2021/07/17 03:11:57;;;;;;;1999.90;999.90;;;;;;;19.46;100.00;95068.44;4913037;29;20679;-79
2021/07/17 03:14:24;;;;;;;1999.90;999.90;;;;;;;19.52;100.00;95071.53;4913697;29;20636;-78
2021/07/17 03:16:51;;;;;;;1999.90;999.90;;;;;;;19.48;100.00;95071.47;4913439;29;20228;-78
2021/07/17 03:19:18;;;;;;;1999.90;999.90;;;;;;;19.58;100.00;95081.38;4912520;29;20201;-79
2021/07/17 03:21:47;;;;;;;1999.90;999.90;;;;;;;19.62;100.00;95073.50;4913355;29;20221;-79
2021/07/17 03:24:14;;;;;;;1999.90;999.90;;;;;;;19.72;100.00;95075.50;4912718;29;20446;-80
2021/07/17 03:26:41;;;;;;;1999.90;999.90;;;;;;;19.87;100.00;95084.31;4912257;29;20461;-79
2021/07/17 03:29:08;;;;;;;1999.90;999.90;;;;;;;19.86;100.00;95080.16;4913262;29;20209;-79
2021/07/17 03:31:35;;;;;;;1999.90;999.90;;;;;;;19.88;100.00;95080.53;4913243;29;20697;-81
2021/07/17 03:34:02;;;;;;;1999.90;999.90;;;;;;;19.94;100.00;95089.66;4913208;29;20202;-79
2021/07/17 03:36:30;;;;;;;1999.90;999.90;;;;;;;19.99;100.00;95086.69;4912075;29;20201;-77
2021/07/17 03:38:59;;;;;;;1999.90;999.90;;;;;;;20.05;100.00;95085.22;4913155;29;20966;-80
2021/07/17 03:41:26;;;;;;;1999.90;999.90;;;;;;;19.97;100.00;95086.31;4913169;29;20265;-76
2021/07/17 03:43:53;;;;;;;1999.90;999.90;;;;;;;19.97;99.99;95083.66;4912709;29;20198;-76
2021/07/17 03:46:20;;;;;;;1999.90;999.90;;;;;;;19.92;100.00;95089.25;4914568;29;20233;-79
2021/07/17 03:48:47;;;;;;;1999.90;999.90;;;;;;;20.03;99.31;95082.94;4901768;29;20217;-76
2021/07/17 03:51:14;;;;;;;1999.90;999.90;;;;;;;20.10;99.08;95092.81;4906822;29;20214;-80
2021/07/17 03:53:42;;;;;;;1999.90;999.90;;;;;;;20.15;99.23;95084.56;4911908;29;20210;-72
2021/07/17 03:56:10;;;;;;;1999.90;999.90;;;;;;;20.18;99.38;95086.47;4912120;29;20558;-68
2021/07/17 03:58:37;;;;;;;1999.90;999.90;;;;;;;20.26;98.92;95088.06;4911992;29;20202;-74
2021/07/17 04:01:04;;;;;;;1999.90;999.90;;;;;;;20.41;98.25;95088.97;4911756;29;20205;-69
2021/07/17 04:03:33;;;;;;;1999.90;999.90;;;;;;;20.54;96.52;95083.03;4912241;29;20234;-69
2021/07/17 04:06:00;;;;;;;1999.90;999.90;;;;;;;20.64;95.65;95078.94;4908745;29;20278;-71
2021/07/17 04:08:27;;;;;;;1999.90;999.90;;;;;;;20.66;95.37;95079.34;4912805;29;20202;-71
2021/07/17 04:10:54;;;;;;;1999.90;999.90;;;;;;;20.72;95.89;95079.75;4899662;29;20242;-70
2021/07/17 04:13:23;;;;;;;1999.90;999.90;;;;;;;20.79;95.37;95082.44;4890393;29;20647;-76
2021/07/17 04:15:50;;;;;;;1999.90;999.90;;;;;;;20.89;93.75;95076.47;4891481;29;20202;-75
2021/07/17 04:18:17;;;;;;;1999.90;999.90;;;;;;;20.91;93.92;95072.34;4891528;29;20213;-75
2021/07/17 04:20:44;;;;;;;1999.90;999.90;;;;;;;20.98;93.45;95072.34;4891464;29;20271;-73
2021/07/17 04:23:11;;;;;;;1999.90;999.90;;;;;;;20.98;93.09;95076.88;4909949;29;20291;-74
2021/07/17 04:25:38;;;;;;;1999.90;999.90;;;;;;;21.10;92.34;95075.81;4911096;29;20230;-75
2021/07/17 04:28:06;;;;;;;1999.90;999.90;;;;;;;21.08;92.55;95073.53;4912013;29;20198;-74
2021/07/17 04:30:34;;;;;;;1999.90;999.90;;;;;;;21.06;93.06;95075.81;4912441;29;20624;-75
2021/07/17 04:33:01;;;;;;;1999.90;999.90;;;;;;;21.14;92.95;95074.75;4912267;29;20816;-73
2021/07/17 04:35:29;;;;;;;1999.90;999.90;;;;;;;21.37;92.55;95072.56;4912906;29;20209;-75
2021/07/17 04:37:56;;;;;;;1999.90;999.90;;;;;;;21.75;89.62;95083.66;4912267;29;20202;-74
2021/07/17 04:40:23;;;;;;;1999.90;999.90;;;;;;;22.04;89.19;95084.47;4912076;29;20698;-74
2021/07/17 04:42:50;;;;;;;1999.90;999.90;;;;;;;22.17;87.75;95089.03;4912239;29;20568;-74
2021/07/17 04:45:18;;;;;;;1999.90;999.90;;;;;;;22.54;87.37;95090.56;4912103;29;20234;-75
2021/07/17 04:47:46;;;;;;;1999.90;999.90;;;;;;;22.67;85.96;95094.34;4914968;29;20242;-68
2021/07/17 04:50:14;;;;;;;1999.90;999.90;;;;;;;22.94;84.38;95084.09;4915630;29;20554;-65
2021/07/17 04:52:41;;;;;;;1999.90;999.90;;;;;;;22.98;83.99;95085.59;4915484;29;20690;-65
2021/07/17 04:55:08;;;;;;;1999.90;999.90;;;;;;;23.00;85.53;95086.00;4915577;29;20208;-75
2021/07/17 04:57:36;;;;;;;1999.90;999.90;;;;;;;23.02;84.89;95093.53;4915803;29;20249;-76
2021/07/17 05:00:03;;;;;;;1999.90;999.90;;;;;;;23.26;84.10;95081.38;4915979;29;20289;-78
2021/07/17 05:02:31;;;;;;;1999.90;999.90;;;;;;;23.42;82.58;95085.09;4915530;29;20252;-80
2021/07/17 05:04:59;;;;;;;1999.90;999.90;;;;;;;23.54;81.89;95079.41;4916020;29;20216;-82
2021/07/17 05:07:26;;;;;;;1999.90;999.90;;;;;;;23.52;82.49;95078.25;4916164;29;20650;-81
2021/07/17 05:09:53;;;;;;;1999.90;999.90;;;;;;;23.46;83.97;95069.22;4915547;29;20727;-78
2021/07/17 05:12:20;;;;;;;1999.90;999.90;;;;;;;23.62;82.89;95071.38;4915228;29;20257;-78
2021/07/17 05:14:48;;;;;;;1999.90;999.90;;;;;;;23.66;83.31;95078.19;4915406;29;20205;-78
2021/07/17 05:17:15;;;;;;;1999.90;999.90;;;;;;;23.84;81.64;95067.50;4915082;29;20198;-78
2021/07/17 05:19:42;;;;;;;1999.90;999.90;;;;;;;23.82;80.87;95070.53;4915201;29;20202;-78
2021/07/17 05:22:10;;;;;;;1999.90;999.90;;;;;;;23.76;81.86;95064.09;4915101;29;20205;-77
2021/07/17 05:24:37;;;;;;;1999.90;999.90;;;;;;;23.83;80.85;95066.72;4915291;29;20206;-77
2021/07/17 05:27:05;;;;;;;1999.90;999.90;;;;;;;23.90;82.31;95066.69;4914847;29;20737;-78
2021/07/17 05:29:32;;;;;;;1999.90;999.90;;;;;;;23.99;82.59;95068.91;4915334;29;20284;-78
2021/07/17 05:31:59;;;;;;;1999.90;999.90;;;;;;;24.23;79.25;95072.56;4915254;29;20206;-79
2021/07/17 05:34:26;;;;;;;1999.90;999.90;;;;;;;24.28;79.17;95070.25;4915105;29;20206;-79
2021/07/17 05:36:53;;;;;;;1999.90;999.90;;;;;;;24.49;79.07;95074.66;4915118;29;20663;-77
2021/07/17 05:39:21;;;;;;;1999.90;999.90;;;;;;;24.76;77.57;95062.22;4915237;29;20210;-78
2021/07/17 05:41:48;;;;;;;1999.90;999.90;;;;;;;24.94;75.75;95067.41;4915024;29;20724;-76
2021/07/17 05:44:16;;;;;;;1999.90;999.90;;;;;;;24.98;76.98;95072.69;4914705;29;20675;-78
2021/07/17 05:46:44;;;;;;;1999.90;999.90;;;;;;;25.09;75.46;95065.38;4914781;29;20225;-78
2021/07/17 05:49:11;;;;;;;1999.90;999.90;;;;;;;25.42;72.60;95064.59;4914756;29;20205;-77
2021/07/17 05:51:38;;;;;;;1999.90;999.90;;;;;;;25.49;72.46;95069.84;4914481;29;20590;-76
2021/07/17 05:54:05;;;;;;;1999.90;999.90;;;;;;;25.68;71.91;95066.56;4914846;29;20288;-75
2021/07/17 05:56:33;;;;;;;1999.90;999.90;;;;;;;25.75;71.34;95057.75;4914862;29;20239;-76
2021/07/17 05:59:01;;;;;;;1999.90;999.90;;;;;;;25.85;71.16;95061.41;4914433;29;20642;-78
2021/07/17 06:01:28;;;;;;;1999.90;999.90;;;;;;;25.90;69.87;95055.66;4914264;29;20212;-78
2021/07/17 06:03:55;;;;;;;1999.90;999.90;;;;;;;26.00;69.82;95052.06;4914667;29;20675;-78
2021/07/17 06:06:26;;;;;;;1999.90;999.90;;;;;;;26.26;68.54;95051.31;4915409;29;20239;-79
2021/07/17 06:08:53;;;;;;;1999.90;999.90;;;;;;;26.45;68.33;95053.28;4915391;29;20186;-76
2021/07/17 06:11:20;;;;;;;1999.90;999.90;;;;;;;26.45;68.03;95053.28;4914719;29;20708;-78
2021/07/17 06:13:48;;;;;;;1999.90;999.90;;;;;;;26.53;68.38;95057.34;4914949;29;20206;-79
2021/07/17 06:16:15;;;;;;;1999.90;999.90;;;;;;;26.66;67.42;95048.75;4914498;29;20208;-78
2021/07/17 06:18:42;;;;;;;1999.90;999.90;;;;;;;26.58;67.87;95042.78;4914169;29;20209;-79
2021/07/17 06:21:10;;;;;;;1999.90;999.90;;;;;;;26.59;68.56;95035.56;4913952;29;20216;-78
2021/07/17 06:23:37;;;;;;;1999.90;999.90;;;;;;;26.90;67.45;95047.56;4913503;29;20205;-77
2021/07/17 06:26:05;;;;;;;1999.90;999.90;;;;;;;27.15;66.05;95036.47;4914141;29;20233;-78
2021/07/17 06:28:37;;;;;;;1999.90;999.90;;;;;;;27.24;64.29;95040.09;4913848;29;20217;-77
2021/07/17 06:31:06;;;;;;;1999.90;999.90;;;;;;;27.30;65.78;95035.75;4914326;29;20229;-79
2021/07/17 06:33:34;;;;;;;1999.90;999.90;;;;;;;27.38;63.62;95025.69;4913924;29;20981;-78
2021/07/17 06:36:01;;;;;;;1999.90;999.90;;;;;;;27.35;63.69;95027.25;4913822;29;20242;-78
2021/07/17 06:38:28;;;;;;;1999.90;999.90;;;;;;;27.63;59.85;95025.97;4914163;29;20220;-78
2021/07/17 06:40:55;;;;;;;1999.90;999.90;;;;;;;27.51;58.98;95013.25;4914170;29;20206;-78
2021/07/17 06:43:27;;;;;;;1999.90;999.90;;;;;;;27.39;56.20;95011.94;4914290;29;20209;-79
2021/07/17 06:45:54;;;;;;;1999.90;999.90;;;;;;;27.56;57.59;95018.09;4913884;29;20214;-78
2021/07/17 06:48:23;;;;;;;1999.90;999.90;;;;;;;27.70;56.71;95014.34;4914023;29;20216;-78
2021/07/17 06:50:50;;;;;;;1999.90;999.90;;;;;;;27.90;54.89;95016.97;4913445;29;20202;-79
2021/07/17 06:53:18;;;;;;;1999.90;999.90;;;;;;;28.03;49.89;95015.91;4913341;29;20455;-79
2021/07/17 06:55:45;;;;;;;1999.90;999.90;;;;;;;28.19;49.58;95015.19;4913707;29;20234;-78
2021/07/17 06:58:12;;;;;;;1999.90;999.90;;;;;;;28.27;49.46;95021.09;4913377;29;20687;-78
2021/07/17 07:00:39;;;;;;;1999.90;999.90;;;;;;;28.30;49.43;95001.53;4913452;29;20620;-79
2021/07/17 07:03:07;;;;;;;1999.90;999.90;;;;;;;28.52;48.97;95002.53;4913139;29;20245;-79
2021/07/17 07:05:35;;;;;;;1999.90;999.90;;;;;;;28.60;45.74;95004.59;4913261;29;20210;-79
2021/07/17 07:08:03;;;;;;;1999.90;999.90;;;;;;;28.68;45.56;94999.81;4913070;29;20213;-78
2021/07/17 07:10:30;;;;;;;1999.90;999.90;;;;;;;28.87;45.48;95001.63;4912273;29;20205;-79
2021/07/17 07:12:57;;;;;;;1999.90;999.90;;;;;;;28.83;43.35;95002.91;4913254;29;20197;-78
2021/07/17 07:15:25;;;;;;;1999.90;999.90;;;;;;;28.98;42.94;94996.75;4913118;29;20205;-78
2021/07/17 07:17:52;;;;;;;1999.90;999.90;;;;;;;29.02;42.67;94992.03;4912992;29;20289;-78
2021/07/17 07:20:20;;;;;;;1999.90;999.90;;;;;;;29.12;41.39;94992.16;4913255;29;20572;-80
2021/07/17 07:22:48;;;;;;;1999.90;999.90;;;;;;;29.32;44.80;94992.78;4913119;29;20208;-79
2021/07/17 07:25:15;;;;;;;1999.90;999.90;;;;;;;29.56;40.02;94993.97;4913499;29;20206;-76
2021/07/17 07:27:43;;;;;;;1999.90;999.90;;;;;;;29.52;40.92;94996.00;4913212;29;20256;-78
2021/07/17 07:30:10;;;;;;;1999.90;999.90;;;;;;;29.60;42.31;94996.53;4913077;29;20198;-78
2021/07/17 07:32:37;;;;;;;1999.90;999.90;;;;;;;29.60;40.35;94986.56;4913307;29;20206;-77
2021/07/17 07:35:05;;;;;;;1999.90;999.90;;;;;;;29.63;39.41;94993.03;4913008;29;20890;-78
2021/07/17 07:37:32;;;;;;;1999.90;999.90;;;;;;;29.66;39.76;94989.47;4912945;29;20618;-78
2021/07/17 07:40:01;;;;;;;1999.90;999.90;;;;;;;29.68;40.19;94995.16;4913109;29;20209;-79
2021/07/17 07:42:29;;;;;;;1999.90;999.90;;;;;;;29.69;40.11;94994.00;4912941;29;20675;-79
2021/07/17 07:44:56;;;;;;;1999.90;999.90;;;;;;;29.92;41.13;94996.38;4913068;29;20201;-78
2021/07/17 07:47:23;;;;;;;1999.90;999.90;;;;;;;30.18;38.85;94992.47;4913159;29;20699;-78
2021/07/17 07:49:52;;;;;;;1999.90;999.90;;;;;;;29.90;38.74;94998.72;4912873;29;20208;-77
2021/07/17 07:52:19;;;;;;;1999.90;999.90;;;;;;;30.03;40.01;94998.72;4912993;29;20198;-77
2021/07/17 07:54:47;;;;;;;1999.90;999.90;;;;;;;29.95;40.90;94995.50;4913200;29;20214;-78
2021/07/17 07:57:15;;;;;;;1999.90;999.90;;;;;;;30.30;38.67;94998.97;4912845;29;20213;-78
2021/07/17 07:59:42;;;;;;;1999.90;999.90;;;;;;;30.38;37.36;94994.13;4912715;29;20202;-77
2021/07/17 08:02:10;;;;;;;1999.90;999.90;;;;;;;30.29;38.43;94989.41;4912449;29;20233;-78
2021/07/17 08:04:37;;;;;;;1999.90;999.90;;;;;;;30.34;37.25;94992.31;4912664;29;20205;-78
2021/07/17 08:07:05;;;;;;;1999.90;999.90;;;;;;;30.18;38.83;94989.78;4912550;29;20237;-78
2021/07/17 08:09:32;;;;;;;1999.90;999.90;;;;;;;30.22;37.46;94997.72;4912711;29;20205;-76
2021/07/17 08:11:59;;;;;;;1999.90;999.90;;;;;;;30.38;36.12;94992.22;4912533;29;20202;-77
2021/07/17 08:14:27;;;;;;;1999.90;999.90;;;;;;;30.21;37.51;94990.84;4912619;29;20216;-78
2021/07/17 08:16:55;;;;;;;1999.90;999.90;;;;;;;30.41;37.57;94985.97;4912514;29;20198;-78
2021/07/17 08:19:22;;;;;;;1999.90;999.90;;;;;;;30.55;36.37;94988.19;4912905;29;20220;-78
2021/07/17 08:21:49;;;;;;;1999.90;999.90;;;;;;;30.78;35.48;94990.47;4913944;29;20705;-77
2021/07/17 08:24:16;;;;;;;1999.90;999.90;;;;;;;30.67;35.31;94986.66;4916436;29;20201;-77
2021/07/17 08:26:43;;;;;;;1999.90;999.90;;;;;;;30.65;36.13;94980.97;4916105;29;21014;-77
2021/07/17 08:29:11;;;;;;;1999.90;999.90;;;;;;;30.72;35.48;94975.38;4915751;29;20204;-77
2021/07/17 08:31:39;;;;;;;1999.90;999.90;;;;;;;30.72;36.51;94970.75;4916195;29;20213;-80
2021/07/17 08:34:06;;;;;;;1999.90;999.90;;;;;;;30.94;34.89;94976.09;4916688;29;20730;-80
2021/07/17 08:36:34;;;;;;;1999.90;999.90;;;;;;;31.04;36.05;94975.00;4916287;29;20730;-75
2021/07/17 08:39:01;;;;;;;1999.90;999.90;;;;;;;30.79;35.82;94969.75;4915865;29;20289;-76
2021/07/17 08:41:30;;;;;;;1999.90;999.90;;;;;;;31.03;36.29;94959.38;4915892;29;20205;-75
2021/07/17 08:43:58;;;;;;;1999.90;999.90;;;;;;;31.19;35.11;94964.50;4915894;29;20265;-77
2021/07/17 08:46:25;;;;;;;1999.90;999.90;;;;;;;31.17;34.71;94956.91;4915822;29;20678;-76
2021/07/17 08:48:56;;;;;;;1999.90;999.90;;;;;;;31.33;34.12;94955.94;4915774;29;20206;-80
2021/07/17 08:51:24;;;;;;;1999.90;999.90;;;;;;;31.33;34.85;94955.94;4915790;29;20250;-78
2021/07/17 08:53:52;;;;;;;1999.90;999.90;;;;;;;31.60;34.16;94953.38;4916043;29;20206;-78
2021/07/17 08:56:19;;;;;;;1999.90;999.90;;;;;;;31.40;32.69;94947.59;4915589;29;20212;-79
2021/07/17 08:58:48;;;;;;;1999.90;999.90;;;;;;;31.30;34.13;94954.13;4916006;29;20209;-78
2021/07/17 09:01:16;;;;;;;1999.90;999.90;;;;;;;31.56;34.48;94947.41;4915714;29;20202;-78
2021/07/17 09:03:43;;;;;;;1999.90;999.90;;;;;;;31.78;35.22;94949.28;4915885;29;20236;-77
2021/07/17 09:06:12;;;;;;;1999.90;999.90;;;;;;;31.86;33.01;94950.47;4915749;29;20726;-79
2021/07/17 09:08:39;;;;;;;1999.90;999.90;;;;;;;31.69;34.18;94941.16;4916144;29;20664;-79
2021/07/17 09:11:06;;;;;;;1999.90;999.90;;;;;;;31.93;33.51;94944.84;4915725;29;20589;-79
2021/07/17 09:13:34;;;;;;;1999.90;999.90;;;;;;;31.76;32.24;94944.34;4915381;29;20202;-78
2021/07/17 09:16:04;;;;;;;1999.90;999.90;;;;;;;31.80;33.54;94942.25;4915378;29;20221;-79
2021/07/17 09:18:40;;;;;;;1999.90;999.90;;;;;;;31.80;31.65;94941.50;4915321;29;20201;-79
2021/07/17 09:21:13;;;;;;;1999.90;999.90;;;;;;;31.89;32.14;94941.53;4915443;29;20229;-78
2021/07/17 09:23:42;;;;;;;1999.90;999.90;;;;;;;31.98;32.14;94942.28;4915580;29;20198;-78
2021/07/17 09:26:12;;;;;;;1999.90;999.90;;;;;;;32.08;32.43;94934.97;4915345;29;20591;-79
2021/07/17 09:28:40;;;;;;;1999.90;999.90;;;;;;;32.20;31.02;94939.50;4915392;29;20284;-78
2021/07/17 09:31:08;;;;;;;1999.90;999.90;;;;;;;32.15;31.16;94929.34;4915391;29;20201;-78
2021/07/17 09:33:36;;;;;;;1999.90;999.90;;;;;;;31.89;30.87;94936.13;4914050;29;20212;-79
2021/07/17 09:36:04;;;;;;;1999.90;999.90;;;;;;;32.02;31.95;94934.84;4915370;29;20209;-77
2021/07/17 09:38:36;;;;;;;1999.90;999.90;;;;;;;32.07;31.57;94935.44;4914896;29;20209;-78
2021/07/17 09:41:07;;;;;;;1999.90;999.90;;;;;;;32.20;31.42;94928.00;4915003;29;20598;-78
2021/07/17 09:43:37;;;;;;;1999.90;999.90;;;;;;;32.24;31.06;94926.66;4915065;29;20217;-77
2021/07/17 09:46:20;;;;;;;1999.90;999.90;;;;;;;32.38;31.00;94919.97;4915070;29;20206;-75
2021/07/17 09:48:49;;;;;;;1999.90;999.90;;;;;;;32.37;30.59;94918.47;4899544;29;20210;-77
2021/07/17 09:51:21;;;;;;;1999.90;999.90;;;;;;;32.47;32.36;94911.88;4913322;29;20592;-70
2021/07/17 09:53:51;;;;;;;1999.90;999.90;;;;;;;32.73;31.38;94917.69;4914791;29;20583;-79
2021/07/17 09:56:20;;;;;;;1999.90;999.90;;;;;;;32.85;30.34;94912.16;4914926;29;20206;-75
2021/07/17 09:58:48;;;;;;;1999.90;999.90;;;;;;;32.72;30.15;94908.16;4915584;29;20202;-78
2021/07/17 10:01:17;;;;;;;1999.90;999.90;;;;;;;32.69;31.36;94907.09;4915411;29;20206;-77
2021/07/17 10:03:45;;;;;;;1999.90;999.90;;;;;;;32.60;30.94;94903.63;4914210;29;20240;-75
2021/07/17 10:06:27;;;;;;;1999.90;999.90;;;;;;;32.78;29.93;94907.06;4915434;29;20288;-77
2021/07/17 10:08:56;;;;;;;1999.90;999.90;;;;;;;32.82;29.81;94906.94;4915304;29;20217;-77
2021/07/17 10:11:24;;;;;;;1999.90;999.90;;;;;;;32.81;30.67;94905.44;4914370;29;20214;-74
2021/07/17 10:13:51;;;;;;;1999.90;999.90;;;;;;;33.06;29.89;94905.06;4914285;29;20194;-76
2021/07/17 10:16:20;;;;;;;1999.90;999.90;;;;;;;33.11;31.54;94901.03;4915651;29;20265;-76
2021/07/17 10:18:49;;;;;;;1999.90;999.90;;;;;;;33.15;31.21;94896.97;4914696;29;20667;-77
2021/07/17 10:21:17;;;;;;;1999.90;999.90;;;;;;;33.28;30.17;94896.78;4915241;29;20205;-76
2021/07/17 10:23:45;;;;;;;1999.90;999.90;;;;;;;33.28;29.60;94902.91;4916163;29;20202;-76
2021/07/17 10:26:14;;;;;;;1999.90;999.90;;;;;;;33.23;28.83;94892.75;4915309;29;20265;-76
2021/07/17 10:28:41;;;;;;;1999.90;999.90;;;;;;;33.56;30.15;94902.81;4915617;29;20233;-76
2021/07/17 10:31:09;;;;;;;1999.90;999.90;;;;;;;33.65;29.30;94894.69;4915599;29;20206;-76
2021/07/17 10:33:37;;;;;;;1999.90;999.90;;;;;;;33.77;28.88;94891.06;4915070;29;20210;-75
2021/07/17 10:36:10;;;;;;;1999.90;999.90;;;;;;;34.04;29.25;94892.81;4915815;29;20710;-76
2021/07/17 10:38:43;;;;;;;1999.90;999.90;;;;;;;34.18;27.78;94884.03;4915362;29;20197;-76
2021/07/17 10:41:16;;;;;;;1999.90;999.90;;;;;;;33.81;27.52;94875.44;4915350;29;20202;-76
2021/07/17 10:43:49;;;;;;;1999.90;999.90;;;;;;;34.13;29.64;94869.22;4915060;29;20190;-76
2021/07/17 10:46:42;;;;;;;1999.90;999.90;;;;;;;34.36;29.04;94864.28;4915430;29;20652;-77
2021/07/17 10:49:11;;;;;;;1999.90;999.90;;;;;;;34.40;32.96;94851.34;4905978;29;20236;-76
2021/07/17 10:51:39;;;;;;;1999.90;999.90;;;;;;;33.93;34.77;94858.25;4914864;29;20266;-76
2021/07/17 10:54:11;;;;;;;1999.90;999.90;;;;;;;33.70;34.84;94851.69;4915411;29;20201;-76
2021/07/17 10:56:44;;;;;;;1999.90;999.90;;;;;;;33.80;34.44;94852.38;4914715;29;20206;-75